Time;durP1;ratioP1;P1;durP2;ratioP2;P2;SDS_P1;SDS_P2;PMS_P1;PMS_P2;Temp;Humidity;BMP_temperature;BMP_pressure;BME280_temperature;BME280_humidity;BME280_pressure;Samples;Min_cycle;Max_cycle;Signal;HPM_P1;HPM_P2
2023/01/09 00:02:20;;;;;;;1.90;1.55;;;;;;;;;;5006589;28;20034;-74
2023/01/09 00:04:46;;;;;;;4.57;1.67;;;;;;;;;;5003624;28;20026;-74
2023/01/09 00:07:12;;;;;;;2.70;1.63;;;;;;;;;;5003787;28;20037;-74
2023/01/09 00:09:38;;;;;;;2.25;1.50;;;;;;;;;;5007131;28;20097;-74
2023/01/09 00:12:04;;;;;;;2.40;1.50;;;;;;;;;;5008060;28;20030;-74
2023/01/09 00:14:30;;;;;;;2.72;1.65;;;;;;;;;;5005743;28;20021;-74
2023/01/09 00:16:56;;;;;;;3.10;1.60;;;;;;;;;;4998934;28;20018;-74
2023/01/09 00:19:22;;;;;;;2.35;1.63;;;;;;;;;;5002759;28;20156;-74
2023/01/09 00:21:48;;;;;;;2.50;1.48;;;;;;;;;;5005491;28;20029;-74
2023/01/09 00:24:14;;;;;;;4.40;1.77;;;;;;;;;;5009238;28;20029;-74
2023/01/09 00:26:40;;;;;;;1.63;1.42;;;;;;;;;;5004060;28;20100;-74
2023/01/09 00:29:06;;;;;;;3.33;1.55;;;;;;;;;;5002417;28;20503;-74
2023/01/09 00:31:32;;;;;;;2.17;1.45;;;;;;;;;;4996025;28;20088;-74
2023/01/09 00:33:59;;;;;;;1.83;1.60;;;;;;;;;;5004857;28;20462;-75
2023/01/09 00:36:25;;;;;;;3.58;1.60;;;;;;;;;;5002502;28;20061;-75
2023/01/09 00:38:51;;;;;;;2.40;1.58;;;;;;;;;;5006140;28;20036;-75
2023/01/09 00:41:26;;;;;;;2.13;1.48;;;;;;;;;;4999509;28;20025;-74
2023/01/09 00:43:55;;;;;;;2.45;1.60;;;;;;;;;;5002808;28;20087;-74
2023/01/09 00:46:28;;;;;;;1.75;1.52;;;;;;;;;;5001406;28;20037;-75
2023/01/09 00:48:55;;;;;;;3.47;1.50;;;;;;;;;;4996917;28;20038;-75
2023/01/09 00:51:21;;;;;;;2.03;1.40;;;;;;;;;;5004375;28;20057;-75
2023/01/09 00:53:47;;;;;;;1.75;1.42;;;;;;;;;;5004448;28;20037;-75
2023/01/09 00:56:15;;;;;;;1.30;1.20;;;;;;;;;;5002062;28;20427;-75
2023/01/09 00:58:41;;;;;;;2.47;1.38;;;;;;;;;;5007862;28;20026;-75
2023/01/09 01:01:10;;;;;;;3.53;1.60;;;;;;;;;;5006116;28;20034;-75
2023/01/09 01:03:36;;;;;;;3.50;1.67;;;;;;;;;;5008506;28;21677;-74
2023/01/09 01:08:47;;;;;;;2.85;1.73;;;;;;;;;;5006108;28;20100;-74
2023/01/09 01:11:13;;;;;;;3.00;1.60;;;;;;;;;;5008224;28;20041;-74
2023/01/09 01:13:40;;;;;;;2.47;1.45;;;;;;;;;;5004705;28;20081;-75
2023/01/09 01:16:07;;;;;;;5.13;1.98;;;;;;;;;;5007218;28;20030;-74
2023/01/09 01:18:33;;;;;;;2.60;1.65;;;;;;;;;;5005489;28;20029;-74
2023/01/09 01:20:59;;;;;;;1.92;1.60;;;;;;;;;;5005666;28;20040;-74
2023/01/09 01:23:25;;;;;;;2.55;1.58;;;;;;;;;;5009282;28;20473;-74
2023/01/09 01:25:51;;;;;;;3.53;1.52;;;;;;;;;;5006167;28;20077;-75
2023/01/09 01:28:18;;;;;;;2.28;1.52;;;;;;;;;;5000847;28;20038;-74
2023/01/09 01:30:44;;;;;;;1.90;1.38;;;;;;;;;;5004854;28;20037;-74
2023/01/09 01:33:10;;;;;;;2.97;1.42;;;;;;;;;;5000857;28;20096;-74
2023/01/09 01:35:36;;;;;;;2.60;1.75;;;;;;;;;;4999545;28;20500;-75
2023/01/09 01:38:03;;;;;;;2.03;1.30;;;;;;;;;;4997204;28;20053;-74
2023/01/09 01:40:29;;;;;;;4.75;1.60;;;;;;;;;;5002161;28;20030;-75
2023/01/09 01:42:55;;;;;;;2.17;1.40;;;;;;;;;;5001401;28;20083;-74
2023/01/09 01:45:24;;;;;;;1.70;1.35;;;;;;;;;;5000911;28;20022;-75
2023/01/09 01:47:53;;;;;;;3.22;1.40;;;;;;;;;;5005771;28;20556;-75
2023/01/09 01:50:38;;;;;;;2.33;1.70;;;;;;;;;;5003967;28;20040;-74
2023/01/09 01:53:16;;;;;;;2.55;1.60;;;;;;;;;;5005147;28;20041;-74
2023/01/09 01:56:09;;;;;;;1.88;1.50;;;;;;;;;;5004540;28;20504;-74
2023/01/09 01:58:39;;;;;;;2.72;1.77;;;;;;;;;;4996103;28;20025;-74
2023/01/09 02:01:05;;;;;;;2.17;1.38;;;;;;;;;;4999033;28;20023;-75
2023/01/09 02:03:32;;;;;;;2.17;1.40;;;;;;;;;;5003033;28;20030;-74
2023/01/09 02:06:11;;;;;;;1.58;1.40;;;;;;;;;;5004318;28;20388;-74
2023/01/09 02:08:37;;;;;;;2.55;1.60;;;;;;;;;;4986226;28;20110;-74
2023/01/09 02:11:03;;;;;;;3.88;1.98;;;;;;;;;;5002790;28;20156;-74
2023/01/09 02:13:30;;;;;;;3.03;1.85;;;;;;;;;;5002769;28;20038;-74
2023/01/09 02:16:10;;;;;;;1.90;1.40;;;;;;;;;;5005332;28;20021;-74
2023/01/09 02:18:41;;;;;;;2.47;1.58;;;;;;;;;;4994083;28;20489;-75
2023/01/09 02:21:18;;;;;;;2.22;1.60;;;;;;;;;;4999257;28;20500;-75
2023/01/09 02:24:01;;;;;;;2.75;1.58;;;;;;;;;;5002727;28;20042;-73
2023/01/09 02:26:34;;;;;;;3.35;1.50;;;;;;;;;;5002577;28;20046;-73
2023/01/09 02:29:00;;;;;;;2.50;1.63;;;;;;;;;;4991940;28;20030;-74
2023/01/09 02:31:35;;;;;;;2.15;1.58;;;;;;;;;;5001214;28;20562;-73
2023/01/09 02:34:04;;;;;;;1.63;1.50;;;;;;;;;;5004285;28;20132;-73
2023/01/09 02:36:33;;;;;;;2.50;1.60;;;;;;;;;;5010507;28;20108;-73
2023/01/09 02:39:14;;;;;;;2.63;1.65;;;;;;;;;;5004553;28;20026;-75
2023/01/09 02:41:52;;;;;;;2.08;1.35;;;;;;;;;;5004724;28;20034;-75
2023/01/09 02:47:42;;;;;;;1.98;1.45;;;;;;;;;;5005527;28;20572;-75
2023/01/09 02:50:10;;;;;;;2.05;1.60;;;;;;;;;;5004573;28;20033;-75
2023/01/09 02:52:56;;;;;;;2.05;1.50;;;;;;;;;;5005792;28;20030;-75
2023/01/09 02:55:32;;;;;;;1.98;1.40;;;;;;;;;;5006415;28;20053;-75
2023/01/09 02:58:00;;;;;;;2.97;1.70;;;;;;;;;;5008687;28;20252;-75
2023/01/09 03:00:26;;;;;;;2.10;1.50;;;;;;;;;;5007276;28;20030;-75
2023/01/09 03:03:11;;;;;;;2.63;1.55;;;;;;;;;;5007567;28;20175;-75
2023/01/09 03:05:40;;;;;;;2.42;1.60;;;;;;;;;;5004464;28;20034;-75
2023/01/09 03:08:17;;;;;;;1.50;1.38;;;;;;;;;;5001525;28;20037;-75
2023/01/09 03:10:48;;;;;;;2.55;1.80;;;;;;;;;;5007969;28;20033;-75
2023/01/09 03:13:22;;;;;;;2.00;1.58;;;;;;;;;;5006203;28;20029;-75
2023/01/09 03:15:49;;;;;;;2.53;1.92;;;;;;;;;;5006677;28;20426;-75
2023/01/09 03:18:17;;;;;;;3.05;1.60;;;;;;;;;;5006183;28;20105;-75
2023/01/09 03:20:43;;;;;;;2.22;1.55;;;;;;;;;;5003822;28;20049;-76
2023/01/09 03:23:09;;;;;;;3.22;1.90;;;;;;;;;;5004694;28;20088;-75
2023/01/09 03:25:35;;;;;;;1.88;1.55;;;;;;;;;;5000979;28;20074;-75
2023/01/09 03:28:08;;;;;;;2.33;1.70;;;;;;;;;;5003597;28;20033;-76
2023/01/09 03:30:36;;;;;;;2.45;1.70;;;;;;;;;;5004035;28;20113;-74
2023/01/09 03:33:02;;;;;;;3.38;1.70;;;;;;;;;;5003671;28;20030;-75
2023/01/09 03:35:28;;;;;;;2.15;1.58;;;;;;;;;;5006356;28;20044;-75
2023/01/09 03:37:54;;;;;;;2.92;1.80;;;;;;;;;;5004012;28;20533;-75
2023/01/09 03:40:20;;;;;;;2.35;1.58;;;;;;;;;;5001113;28;20125;-75
2023/01/09 03:42:49;;;;;;;2.65;1.63;;;;;;;;;;5003608;28;20026;-75
2023/01/09 03:45:15;;;;;;;1.83;1.27;;;;;;;;;;5008715;28;20764;-72
2023/01/09 03:47:44;;;;;;;1.88;1.35;;;;;;;;;;5002322;28;20037;-75
2023/01/09 03:50:10;;;;;;;3.22;1.60;;;;;;;;;;5001277;28;20380;-75
2023/01/09 03:52:36;;;;;;;3.90;1.77;;;;;;;;;;5001664;28;20543;-75
2023/01/09 03:55:02;;;;;;;2.25;1.40;;;;;;;;;;5003033;28;20026;-75
2023/01/09 03:57:28;;;;;;;2.67;1.83;;;;;;;;;;5004818;28;20114;-75
2023/01/09 03:59:54;;;;;;;2.25;1.55;;;;;;;;;;4995944;28;20337;-75
2023/01/09 04:02:20;;;;;;;3.38;1.70;;;;;;;;;;5006329;28;20515;-75
2023/01/09 04:05:01;;;;;;;1.65;1.55;;;;;;;;;;5003174;28;20083;-75
2023/01/09 04:07:27;;;;;;;2.80;1.60;;;;;;;;;;5000638;28;20148;-72
2023/01/09 04:09:53;;;;;;;2.97;1.70;;;;;;;;;;4999683;28;20457;-72
2023/01/09 04:12:19;;;;;;;2.05;1.65;;;;;;;;;;4997938;28;20034;-75
2023/01/09 04:14:45;;;;;;;2.97;1.83;;;;;;;;;;5002224;28;20022;-75
2023/01/09 04:17:11;;;;;;;2.80;1.98;;;;;;;;;;5000482;28;20601;-75
2023/01/09 04:19:37;;;;;;;1.90;1.70;;;;;;;;;;5002849;28;20366;-75
2023/01/09 04:22:05;;;;;;;2.80;1.67;;;;;;;;;;5003871;28;20238;-75
2023/01/09 04:24:31;;;;;;;2.22;1.80;;;;;;;;;;5005555;28;20045;-75
2023/01/09 04:27:00;;;;;;;2.85;1.77;;;;;;;;;;5004627;28;20101;-75
2023/01/09 04:29:29;;;;;;;2.30;1.50;;;;;;;;;;4999914;28;20034;-75
2023/01/09 04:31:55;;;;;;;2.20;1.40;;;;;;;;;;4997766;28;20864;-75
2023/01/09 04:34:24;;;;;;;2.22;1.77;;;;;;;;;;4998369;28;20025;-75
2023/01/09 04:36:54;;;;;;;1.85;1.50;;;;;;;;;;4995938;28;20034;-75
2023/01/09 04:39:22;;;;;;;2.47;1.45;;;;;;;;;;5000683;28;20105;-75
2023/01/09 04:41:48;;;;;;;2.50;1.75;;;;;;;;;;5000419;28;20030;-75
2023/01/09 04:44:21;;;;;;;2.50;1.80;;;;;;;;;;5003593;28;20049;-75
2023/01/09 04:46:48;;;;;;;4.32;1.98;;;;;;;;;;5000060;28;20029;-75
2023/01/09 04:49:14;;;;;;;2.00;1.40;;;;;;;;;;5005014;28;20173;-75
2023/01/09 04:51:40;;;;;;;2.55;1.75;;;;;;;;;;5001713;28;20032;-72
2023/01/09 04:54:09;;;;;;;2.65;1.77;;;;;;;;;;5004784;28;20026;-75
2023/01/09 04:56:36;;;;;;;2.63;1.95;;;;;;;;;;4998434;28;20042;-75
2023/01/09 04:59:02;;;;;;;3.55;1.90;;;;;;;;;;5010050;28;20452;-75
2023/01/09 05:01:28;;;;;;;2.42;1.67;;;;;;;;;;5005753;28;20026;-75
2023/01/09 05:03:54;;;;;;;3.58;1.98;;;;;;;;;;5004957;28;20052;-75
2023/01/09 05:06:20;;;;;;;2.47;1.73;;;;;;;;;;5000603;28;20087;-75
2023/01/09 05:08:46;;;;;;;1.85;1.67;;;;;;;;;;5007223;28;20441;-75
2023/01/09 05:11:12;;;;;;;2.95;1.83;;;;;;;;;;5000477;28;20026;-74
2023/01/09 05:13:38;;;;;;;1.98;1.60;;;;;;;;;;5007786;28;20451;-75
2023/01/09 05:16:04;;;;;;;3.13;1.70;;;;;;;;;;5002662;28;20642;-75
2023/01/09 05:18:30;;;;;;;2.35;1.70;;;;;;;;;;5005259;28;20072;-75
2023/01/09 05:20:58;;;;;;;2.42;1.70;;;;;;;;;;5007948;28;20034;-74
2023/01/09 05:23:24;;;;;;;2.63;1.63;;;;;;;;;;5002514;28;20034;-74
2023/01/09 05:25:50;;;;;;;2.97;2.13;;;;;;;;;;5000014;28;20091;-74
2023/01/09 05:28:16;;;;;;;2.92;1.80;;;;;;;;;;5002691;28;20032;-77
2023/01/09 05:30:42;;;;;;;2.33;1.75;;;;;;;;;;5001134;28;20026;-75
2023/01/09 05:33:08;;;;;;;2.60;1.63;;;;;;;;;;5003872;28;20469;-75
2023/01/09 05:35:34;;;;;;;2.50;1.60;;;;;;;;;;5002022;28;20030;-75
2023/01/09 05:38:00;;;;;;;2.10;1.45;;;;;;;;;;5004022;28;20014;-75
2023/01/09 05:40:26;;;;;;;2.10;1.77;;;;;;;;;;4999995;28;20444;-74
2023/01/09 05:42:52;;;;;;;1.80;1.52;;;;;;;;;;4999654;28;20045;-76
2023/01/09 05:45:18;;;;;;;2.20;1.70;;;;;;;;;;5001353;28;20026;-77
2023/01/09 05:47:45;;;;;;;2.40;1.90;;;;;;;;;;5005394;28;20381;-75
2023/01/09 05:50:11;;;;;;;3.78;1.80;;;;;;;;;;5003391;28;20070;-75
2023/01/09 05:52:37;;;;;;;2.92;2.00;;;;;;;;;;5001645;28;20039;-75
2023/01/09 05:55:11;;;;;;;3.05;2.05;;;;;;;;;;5003038;28;20053;-75
2023/01/09 05:57:37;;;;;;;2.67;1.52;;;;;;;;;;5002151;28;20026;-75
2023/01/09 06:00:04;;;;;;;2.95;1.92;;;;;;;;;;5005833;28;20517;-76
2023/01/09 06:02:30;;;;;;;2.83;1.85;;;;;;;;;;5002160;28;20042;-75
2023/01/09 06:04:56;;;;;;;2.28;1.67;;;;;;;;;;5004832;28;20084;-75
2023/01/09 06:07:22;;;;;;;3.33;1.75;;;;;;;;;;4998251;28;20473;-74
2023/01/09 06:09:48;;;;;;;2.67;1.70;;;;;;;;;;5003013;28;20489;-74
2023/01/09 06:12:14;;;;;;;2.92;1.67;;;;;;;;;;5005494;28;20089;-74
2023/01/09 06:14:40;;;;;;;3.08;2.03;;;;;;;;;;5001742;28;20084;-74
2023/01/09 06:17:09;;;;;;;3.80;2.05;;;;;;;;;;4997996;28;20034;-73
2023/01/09 06:19:36;;;;;;;2.45;1.48;;;;;;;;;;5003107;28;20104;-73
2023/01/09 06:22:01;;;;;;;3.03;1.80;;;;;;;;;;5003672;28;20026;-74
2023/01/09 06:24:27;;;;;;;2.67;1.45;;;;;;;;;;5005366;28;20033;-73
2023/01/09 06:26:53;;;;;;;3.05;1.77;;;;;;;;;;5005320;28;20128;-74
2023/01/09 06:29:19;;;;;;;2.78;2.05;;;;;;;;;;5005720;28;20053;-73
2023/01/09 06:31:45;;;;;;;2.40;1.58;;;;;;;;;;5003092;28;20033;-74
2023/01/09 06:34:11;;;;;;;2.95;1.92;;;;;;;;;;5004738;28;20041;-73
2023/01/09 06:36:40;;;;;;;2.15;1.58;;;;;;;;;;5006982;28;20025;-73
2023/01/09 06:39:06;;;;;;;2.80;1.83;;;;;;;;;;5001026;28;20033;-73
2023/01/09 06:41:32;;;;;;;5.35;1.60;;;;;;;;;;5002418;28;20022;-74
2023/01/09 06:43:58;;;;;;;2.47;1.80;;;;;;;;;;4999125;28;20029;-74
2023/01/09 06:46:24;;;;;;;3.40;1.88;;;;;;;;;;5005581;28;20022;-74
2023/01/09 06:48:50;;;;;;;2.78;1.92;;;;;;;;;;4999402;28;20065;-74
2023/01/09 06:51:16;;;;;;;2.97;2.05;;;;;;;;;;4998605;28;20037;-74
2023/01/09 06:53:44;;;;;;;3.05;1.80;;;;;;;;;;5002837;28;20026;-73
2023/01/09 06:56:10;;;;;;;5.75;1.75;;;;;;;;;;5001023;28;20022;-74
2023/01/09 06:58:36;;;;;;;2.42;1.70;;;;;;;;;;5001592;28;20074;-73
2023/01/09 07:01:02;;;;;;;2.38;1.50;;;;;;;;;;5003467;28;20025;-73
2023/01/09 07:03:28;;;;;;;2.83;1.70;;;;;;;;;;5000491;28;20080;-74
2023/01/09 07:05:54;;;;;;;2.28;1.60;;;;;;;;;;5003385;28;20069;-74
2023/01/09 07:08:20;;;;;;;4.25;2.30;;;;;;;;;;5002416;28;20045;-73
2023/01/09 07:10:46;;;;;;;2.53;1.42;;;;;;;;;;5004119;28;20480;-73
2023/01/09 07:13:12;;;;;;;4.53;1.83;;;;;;;;;;5002607;28;20136;-74
2023/01/09 07:15:38;;;;;;;2.67;1.63;;;;;;;;;;5002277;28;20489;-74
2023/01/09 07:18:04;;;;;;;3.42;1.52;;;;;;;;;;5003678;28;20526;-74
2023/01/09 07:20:30;;;;;;;2.42;1.70;;;;;;;;;;5003601;28;20076;-74
2023/01/09 07:22:57;;;;;;;2.97;2.00;;;;;;;;;;5002169;28;20084;-74
2023/01/09 07:25:25;;;;;;;2.90;1.92;;;;;;;;;;5006519;28;20136;-75
2023/01/09 07:28:10;;;;;;;2.83;2.13;;;;;;;;;;4997904;28;20046;-75
2023/01/09 07:30:37;;;;;;;3.00;1.95;;;;;;;;;;5003039;28;20064;-74
2023/01/09 07:33:03;;;;;;;2.53;1.55;;;;;;;;;;5002297;28;20070;-75
2023/01/09 07:35:29;;;;;;;3.63;2.00;;;;;;;;;;5005271;28;20168;-75
2023/01/09 07:37:55;;;;;;;3.08;1.67;;;;;;;;;;5005594;28;20369;-75
2023/01/09 07:40:21;;;;;;;2.90;1.75;;;;;;;;;;4976308;28;20030;-75
2023/01/09 07:42:47;;;;;;;2.95;1.77;;;;;;;;;;5002855;28;20028;-85
2023/01/09 07:45:16;;;;;;;3.45;2.05;;;;;;;;;;4985369;28;20026;-76
2023/01/09 07:47:42;;;;;;;2.67;1.80;;;;;;;;;;5005553;28;20084;-75
2023/01/09 07:50:11;;;;;;;1.90;1.42;;;;;;;;;;4998091;28;20034;-76
2023/01/09 07:52:40;;;;;;;2.40;1.75;;;;;;;;;;5000416;28;20036;-74
2023/01/09 07:55:06;;;;;;;3.55;1.80;;;;;;;;;;5004382;28;20847;-76
2023/01/09 07:57:32;;;;;;;3.78;1.98;;;;;;;;;;4998743;28;20033;-76
2023/01/09 07:59:59;;;;;;;1.95;1.60;;;;;;;;;;5001531;28;20037;-75
2023/01/09 08:02:26;;;;;;;2.25;1.60;;;;;;;;;;5006519;28;20029;-74
2023/01/09 08:04:52;;;;;;;3.38;1.92;;;;;;;;;;5008520;28;20030;-76
2023/01/09 08:07:18;;;;;;;2.67;1.90;;;;;;;;;;5001332;28;20045;-79
2023/01/09 08:09:44;;;;;;;2.38;1.77;;;;;;;;;;5004331;28;20029;-77
2023/01/09 08:12:10;;;;;;;5.38;1.80;;;;;;;;;;5003352;28;20026;-75
2023/01/09 08:14:46;;;;;;;3.25;1.60;;;;;;;;;;5001412;28;20030;-74
2023/01/09 08:17:12;;;;;;;2.75;1.80;;;;;;;;;;4996204;28;20042;-78
2023/01/09 08:19:47;;;;;;;2.72;1.60;;;;;;;;;;5006855;28;20496;-76
2023/01/09 08:22:13;;;;;;;3.13;1.80;;;;;;;;;;5007291;28;20018;-74
2023/01/09 08:24:39;;;;;;;2.60;1.63;;;;;;;;;;5005054;28;20104;-75
2023/01/09 08:27:05;;;;;;;3.38;1.83;;;;;;;;;;5003642;28;20033;-73
2023/01/09 08:29:31;;;;;;;3.63;2.00;;;;;;;;;;5003924;28;20054;-77
2023/01/09 08:31:56;;;;;;;3.10;2.10;;;;;;;;;;4999389;28;20042;-85
2023/01/09 08:34:22;;;;;;;3.70;1.80;;;;;;;;;;5006842;28;20042;-82
2023/01/09 08:36:48;;;;;;;3.25;1.70;;;;;;;;;;5000114;28;20026;-77
2023/01/09 08:39:14;;;;;;;2.10;1.75;;;;;;;;;;5001165;28;20033;-73
2023/01/09 08:47:10;;;;;;;3.63;1.80;;;;;;;;;;5006986;28;20484;-74
2023/01/09 08:49:37;;;;;;;2.00;1.75;;;;;;;;;;5006729;28;20396;-73
2023/01/09 08:52:04;;;;;;;2.30;1.60;;;;;;;;;;5011870;28;20710;-74
2023/01/09 08:54:30;;;;;;;2.78;1.83;;;;;;;;;;5004229;28;20037;-73
2023/01/09 08:56:56;;;;;;;2.50;1.73;;;;;;;;;;5017021;28;20025;-73
2023/01/09 08:59:22;;;;;;;2.72;1.90;;;;;;;;;;5002172;28;20048;-73
2023/01/09 09:01:48;;;;;;;3.28;2.28;;;;;;;;;;5010841;28;20021;-72
2023/01/09 09:04:14;;;;;;;3.03;1.92;;;;;;;;;;5005649;28;20034;-73
2023/01/09 09:06:41;;;;;;;1.88;1.50;;;;;;;;;;5005740;28;20777;-73
2023/01/09 09:09:07;;;;;;;4.00;2.00;;;;;;;;;;5004228;28;20037;-73
2023/01/09 09:11:33;;;;;;;2.88;1.90;;;;;;;;;;5006695;28;20393;-73
2023/01/09 09:14:00;;;;;;;2.42;1.77;;;;;;;;;;5005207;28;20061;-73
2023/01/09 09:16:29;;;;;;;2.45;1.58;;;;;;;;;;5004935;28;20089;-73
2023/01/09 09:18:57;;;;;;;3.05;1.95;;;;;;;;;;5006081;28;20186;-73
2023/01/09 09:21:23;;;;;;;4.32;1.67;;;;;;;;;;5005250;28;20099;-73
2023/01/09 09:23:49;;;;;;;3.60;2.00;;;;;;;;;;5008889;28;20484;-72
2023/01/09 09:26:15;;;;;;;4.93;1.88;;;;;;;;;;5008130;28;20704;-72
2023/01/09 09:28:41;;;;;;;3.58;1.67;;;;;;;;;;5005636;28;20795;-73
2023/01/09 09:31:07;;;;;;;2.38;1.85;;;;;;;;;;5009272;28;20040;-72
2023/01/09 09:33:33;;;;;;;3.85;2.05;;;;;;;;;;5004359;28;20101;-72
2023/01/09 09:36:00;;;;;;;2.03;1.48;;;;;;;;;;5002915;28;20121;-73
2023/01/09 09:38:26;;;;;;;5.32;2.22;;;;;;;;;;5004431;28;20159;-72
2023/01/09 09:44:41;;;;;;;2.28;1.90;;;;;;;;;;5006875;28;20611;-72
2023/01/09 09:47:08;;;;;;;2.70;1.83;;;;;;;;;;5007168;28;20095;-71
2023/01/09 09:49:40;;;;;;;4.03;2.03;;;;;;;;;;5003912;28;20034;-73
2023/01/09 09:52:26;;;;;;;2.40;1.73;;;;;;;;;;5005993;28;20496;-74
2023/01/09 09:54:52;;;;;;;3.40;1.90;;;;;;;;;;5007085;28;20523;-76
2023/01/09 09:57:21;;;;;;;3.45;1.80;;;;;;;;;;5004107;28;20703;-72
2023/01/09 09:59:50;;;;;;;3.45;1.98;;;;;;;;;;4999660;28;20038;-74
2023/01/09 10:02:25;;;;;;;4.38;1.98;;;;;;;;;;5004963;28;20048;-74
2023/01/09 10:04:55;;;;;;;3.00;1.85;;;;;;;;;;5004026;28;20111;-72
2023/01/09 10:07:23;;;;;;;2.65;1.90;;;;;;;;;;5006078;28;20120;-71
2023/01/09 10:09:58;;;;;;;6.43;2.10;;;;;;;;;;5006983;28;20037;-72
2023/01/09 10:12:27;;;;;;;1.70;1.60;;;;;;;;;;5005242;28;20388;-74
2023/01/09 10:14:57;;;;;;;3.45;2.00;;;;;;;;;;4996729;28;20034;-73
2023/01/09 10:17:29;;;;;;;3.67;1.98;;;;;;;;;;5005384;28;20041;-76
2023/01/09 10:19:58;;;;;;;4.70;2.25;;;;;;;;;;5002517;28;20085;-72
2023/01/09 10:22:36;;;;;;;3.40;2.08;;;;;;;;;;5004818;28;20499;-75
2023/01/09 10:25:20;;;;;;;3.20;1.70;;;;;;;;;;5006403;28;20105;-75
2023/01/09 10:27:58;;;;;;;3.78;1.70;;;;;;;;;;5006537;28;20038;-75
2023/01/09 10:30:34;;;;;;;3.90;2.08;;;;;;;;;;5007217;28;20479;-71
2023/01/09 10:33:19;;;;;;;4.30;1.92;;;;;;;;;;5009656;28;20026;-68
2023/01/09 10:35:55;;;;;;;2.95;1.95;;;;;;;;;;5009171;28;20080;-68
2023/01/09 10:38:25;;;;;;;2.67;1.60;;;;;;;;;;5005854;28;20385;-67
2023/01/09 10:40:53;;;;;;;2.95;1.83;;;;;;;;;;5003103;28;20026;-69
2023/01/09 10:43:29;;;;;;;2.85;1.73;;;;;;;;;;5007099;28;20030;-74
2023/01/09 10:45:57;;;;;;;5.25;1.88;;;;;;;;;;5005287;28;20381;-73
2023/01/09 10:48:35;;;;;;;3.80;2.00;;;;;;;;;;5008365;28;20029;-73
2023/01/09 10:51:02;;;;;;;3.90;2.03;;;;;;;;;;5009462;28;20033;-72
2023/01/09 10:53:32;;;;;;;4.90;1.70;;;;;;;;;;5009391;28;20037;-72
2023/01/09 10:56:03;;;;;;;3.75;1.73;;;;;;;;;;5007929;28;20033;-73
2023/01/09 10:58:29;;;;;;;2.85;1.70;;;;;;;;;;5008741;28;20088;-72
2023/01/09 11:00:57;;;;;;;5.53;2.35;;;;;;;;;;5008432;28;20022;-71
2023/01/09 11:03:26;;;;;;;4.55;2.20;;;;;;;;;;5002971;28;20443;-72
2023/01/09 11:05:54;;;;;;;3.50;1.95;;;;;;;;;;5007905;28;20040;-72
2023/01/09 11:08:29;;;;;;;3.63;1.58;;;;;;;;;;5005764;28;20034;-73
2023/01/09 11:10:56;;;;;;;4.32;1.70;;;;;;;;;;5007446;28;20037;-73
2023/01/09 11:13:24;;;;;;;2.72;1.73;;;;;;;;;;5007656;28;20072;-74
2023/01/09 11:16:00;;;;;;;4.65;1.73;;;;;;;;;;5008438;28;20800;-74
2023/01/09 11:18:26;;;;;;;5.63;2.22;;;;;;;;;;5008770;28;20468;-73
2023/01/09 11:20:52;;;;;;;4.97;1.90;;;;;;;;;;5002495;28;20014;-72
2023/01/09 11:23:23;;;;;;;5.55;2.15;;;;;;;;;;5008064;28;20037;-69
2023/01/09 11:25:53;;;;;;;2.60;1.85;;;;;;;;;;5008532;28;20054;-70
2023/01/09 11:28:19;;;;;;;2.25;1.70;;;;;;;;;;5008698;28;20057;-70
2023/01/09 11:30:53;;;;;;;2.85;1.55;;;;;;;;;;5006419;28;20068;-70
2023/01/09 11:33:21;;;;;;;2.40;1.40;;;;;;;;;;5005938;28;20091;-71
2023/01/09 11:35:55;;;;;;;2.95;1.75;;;;;;;;;;5006196;28;20065;-70
2023/01/09 11:38:21;;;;;;;1.55;1.35;;;;;;;;;;5009629;28;20032;-70
2023/01/09 11:40:49;;;;;;;3.05;1.77;;;;;;;;;;5007787;28;20468;-71
2023/01/09 11:43:20;;;;;;;2.30;1.45;;;;;;;;;;5009083;28;20037;-70
2023/01/09 11:45:50;;;;;;;2.63;1.70;;;;;;;;;;5008914;28;20033;-71
2023/01/09 11:48:18;;;;;;;3.30;1.33;;;;;;;;;;5009015;28;20083;-72
2023/01/09 11:50:52;;;;;;;6.38;1.90;;;;;;;;;;5006972;28;20295;-72
2023/01/09 11:53:19;;;;;;;2.78;1.65;;;;;;;;;;5009319;28;20026;-74
2023/01/09 11:55:46;;;;;;;1.40;1.20;;;;;;;;;;5011512;28;20026;-72
2023/01/09 11:58:16;;;;;;;2.30;1.50;;;;;;;;;;5012523;28;20018;-72
2023/01/09 12:01:05;;;;;;;2.22;1.70;;;;;;;;;;5012353;28;20026;-72
2023/01/09 12:03:39;;;;;;;2.97;1.30;;;;;;;;;;5010915;28;20041;-72
2023/01/09 12:06:14;;;;;;;1.30;1.05;;;;;;;;;;5012486;28;20030;-71
2023/01/09 12:08:58;;;;;;;2.40;1.10;;;;;;;;;;5012349;28;20033;-72
2023/01/09 12:11:46;;;;;;;1.00;0.90;;;;;;;;;;5012422;28;20087;-72
2023/01/09 12:14:19;;;;;;;1.65;1.40;;;;;;;;;;5000579;28;20053;-73
2023/01/09 12:16:59;;;;;;;2.25;1.50;;;;;;;;;;5010288;28;20116;-72
2023/01/09 12:19:36;;;;;;;2.00;1.00;;;;;;;;;;5011539;28;20030;-73
2023/01/09 12:22:22;;;;;;;1.25;1.13;;;;;;;;;;5007112;28;20049;-73
2023/01/09 12:25:06;;;;;;;1.75;0.93;;;;;;;;;;5009083;28;20030;-72
2023/01/09 12:27:32;;;;;;;2.92;1.80;;;;;;;;;;5011413;28;20417;-74
2023/01/09 12:30:04;;;;;;;2.10;1.30;;;;;;;;;;5010217;28;20080;-73
2023/01/09 12:32:42;;;;;;;1.27;1.00;;;;;;;;;;5009954;28;20068;-76
2023/01/09 12:35:22;;;;;;;1.20;1.00;;;;;;;;;;5010377;28;20045;-75
2023/01/09 12:37:54;;;;;;;2.47;1.05;;;;;;;;;;5007284;28;20517;-75
2023/01/09 12:40:31;;;;;;;1.85;1.20;;;;;;;;;;5009706;28;20079;-75
2023/01/09 12:43:02;;;;;;;2.00;1.10;;;;;;;;;;5009902;28;20030;-73
2023/01/09 12:45:28;;;;;;;2.08;1.30;;;;;;;;;;5011808;28;20113;-74
2023/01/09 12:47:59;;;;;;;1.50;1.08;;;;;;;;;;5006698;28;20028;-73
2023/01/09 12:50:34;;;;;;;2.13;1.38;;;;;;;;;;5008095;28;20030;-74
2023/01/09 12:53:03;;;;;;;1.45;1.00;;;;;;;;;;5010874;28;20283;-74
2023/01/09 12:55:32;;;;;;;0.95;0.82;;;;;;;;;;5010878;28;20028;-72
2023/01/09 12:58:01;;;;;;;2.78;1.10;;;;;;;;;;5010519;28;20382;-73
2023/01/09 13:00:31;;;;;;;1.55;1.20;;;;;;;;;;5008687;28;20109;-73
2023/01/09 13:03:16;;;;;;;0.85;0.82;;;;;;;;;;5009130;28;20384;-72
2023/01/09 13:05:47;;;;;;;1.48;0.90;;;;;;;;;;5006582;28;20402;-73
2023/01/09 13:08:13;;;;;;;;;;;;;;;;;;5009510;28;20113;-73
2023/01/09 13:10:41;;;;;;;0.95;0.82;;;;;;;;;;5009355;28;19996;-73
2023/01/09 13:13:30;;;;;;;3.05;1.00;;;;;;;;;;5011545;28;20033;-73
2023/01/09 13:15:57;;;;;;;1.75;1.00;;;;;;;;;;5007872;28;20530;-72
2023/01/09 13:18:33;;;;;;;2.17;0.90;;;;;;;;;;5007160;28;20022;-72
2023/01/09 13:21:00;;;;;;;1.42;0.90;;;;;;;;;;5009580;28;20132;-72
2023/01/09 13:23:41;;;;;;;1.67;0.98;;;;;;;;;;5009518;28;20010;-72
2023/01/09 13:26:10;;;;;;;1.17;1.00;;;;;;;;;;5009801;28;20064;-73
2023/01/09 13:28:40;;;;;;;1.48;1.10;;;;;;;;;;5007859;28;20052;-72
2023/01/09 13:31:17;;;;;;;9.20;1.35;;;;;;;;;;5004755;28;20044;-73
2023/01/09 13:33:46;;;;;;;2.88;1.15;;;;;;;;;;5008799;28;20057;-73
2023/01/09 13:36:24;;;;;;;3.28;1.58;;;;;;;;;;5010463;28;20025;-73
2023/01/09 13:38:50;;;;;;;4.68;1.27;;;;;;;;;;5008045;28;20113;-73
2023/01/09 13:44:04;;;;;;;2.03;1.02;;;;;;;;;;5009605;28;20079;-73
2023/01/09 13:46:51;;;;;;;1.60;0.82;;;;;;;;;;5010570;28;20163;-72
2023/01/09 13:49:29;;;;;;;2.55;1.20;;;;;;;;;;5007066;28;20030;-73
2023/01/09 13:51:57;;;;;;;3.35;1.15;;;;;;;;;;5008213;28;20034;-72
2023/01/09 13:54:46;;;;;;;1.30;0.90;;;;;;;;;;5009741;28;20058;-73
2023/01/09 13:57:25;;;;;;;4.43;1.90;;;;;;;;;;5009488;28;20029;-72
2023/01/09 13:59:51;;;;;;;3.63;1.30;;;;;;;;;;5007284;28;20050;-73
2023/01/09 14:02:35;;;;;;;1.48;0.90;;;;;;;;;;4991176;28;20030;-73
2023/01/09 14:05:08;;;;;;;1.23;1.00;;;;;;;;;;5008398;28;20018;-72
2023/01/09 14:07:40;;;;;;;1.83;1.13;;;;;;;;;;4999022;28;20033;-72
2023/01/09 14:10:06;;;;;;;;;;;;;;;;;;5009621;28;20030;-72
2023/01/09 14:12:39;;;;;;;1.00;0.90;;;;;;;;;;5008187;28;19952;-78
2023/01/09 14:15:05;;;;;;;2.05;1.00;;;;;;;;;;5004580;28;20422;-72
2023/01/09 14:17:33;;;;;;;3.28;1.65;;;;;;;;;;5009035;28;20503;-72
2023/01/09 14:20:00;;;;;;;1.38;0.93;;;;;;;;;;5007691;28;20030;-73
2023/01/09 14:22:29;;;;;;;1.80;1.02;;;;;;;;;;5008691;28;20034;-73
2023/01/09 14:25:01;;;;;;;2.10;1.20;;;;;;;;;;5007282;28;20096;-73
2023/01/09 14:27:46;;;;;;;0.85;0.80;;;;;;;;;;5008845;28;20168;-74
2023/01/09 14:30:27;;;;;;;1.60;1.00;;;;;;;;;;5006882;28;20053;-73
2023/01/09 14:32:57;;;;;;;2.08;0.90;;;;;;;;;;5006206;28;20080;-74
2023/01/09 14:35:27;;;;;;;1.30;1.00;;;;;;;;;;5007224;28;20046;-73
2023/01/09 14:37:59;;;;;;;1.08;0.80;;;;;;;;;;5007707;28;20032;-73
2023/01/09 14:40:25;;;;;;;1.30;1.00;;;;;;;;;;5007470;28;20037;-73
2023/01/09 14:42:52;;;;;;;4.55;1.17;;;;;;;;;;4999283;28;20057;-72
2023/01/09 14:45:21;;;;;;;1.13;1.02;;;;;;;;;;5006559;28;20029;-72
2023/01/09 14:47:53;;;;;;;3.45;1.02;;;;;;;;;;5008574;28;20030;-72
2023/01/09 14:50:28;;;;;;;1.77;0.90;;;;;;;;;;5007942;28;20101;-72
2023/01/09 14:53:10;;;;;;;3.65;0.90;;;;;;;;;;4998432;28;20036;-73
2023/01/09 14:55:43;;;;;;;1.23;0.80;;;;;;;;;;5004832;28;20030;-72
2023/01/09 14:58:10;;;;;;;1.63;1.20;;;;;;;;;;5007934;28;20546;-72
2023/01/09 15:00:36;;;;;;;1.65;0.77;;;;;;;;;;5008401;28;20014;-71
2023/01/09 15:03:02;;;;;;;0.95;0.75;;;;;;;;;;5010883;28;20018;-72
2023/01/09 15:05:30;;;;;;;1.50;1.27;;;;;;;;;;5002824;28;20132;-74
2023/01/09 15:07:58;;;;;;;1.27;0.85;;;;;;;;;;5001569;28;20108;-75
2023/01/09 15:10:27;;;;;;;0.98;0.88;;;;;;;;;;5004697;28;20076;-78
2023/01/09 15:12:55;;;;;;;3.60;0.98;;;;;;;;;;5003972;28;20482;-73
2023/01/09 15:15:21;;;;;;;1.95;0.93;;;;;;;;;;5006095;28;20567;-73